sensor_id;sensor_type;location;lat;lon;timestamp;pressure;altitude;pressure_sealevel;temperature;humidity
41712;BME280;27399;51.516;13.670;2023-05-27T00:00:58;101645.75;;;13.80;67.76
41712;BME280;27399;51.516;13.670;2023-05-27T00:03:24;101655.56;;;13.79;68.32
41712;BME280;27399;51.516;13.670;2023-05-27T00:05:50;101649.34;;;13.74;68.84
41712;BME280;27399;51.516;13.670;2023-05-27T00:08:15;101655.59;;;13.69;68.49
41712;BME280;27399;51.516;13.670;2023-05-27T00:10:41;101653.78;;;13.69;68.39
41712;BME280;27399;51.516;13.670;2023-05-27T00:13:07;101664.53;;;13.60;68.88
41712;BME280;27399;51.516;13.670;2023-05-27T00:15:32;101660.97;;;13.52;68.90
41712;BME280;27399;51.516;13.670;2023-05-27T00:17:58;101667.22;;;13.52;69.48
41712;BME280;27399;51.516;13.670;2023-05-27T00:20:28;101665.44;;;13.53;69.25
41712;BME280;27399;51.516;13.670;2023-05-27T00:22:56;101667.22;;;13.44;69.64
41712;BME280;27399;51.516;13.670;2023-05-27T00:25:22;101660.97;;;13.41;69.63
41712;BME280;27399;51.516;13.670;2023-05-27T00:27:48;101647.56;;;13.30;69.82
41712;BME280;27399;51.516;13.670;2023-05-27T00:30:14;101661.84;;;13.38;69.58
41712;BME280;27399;51.516;13.670;2023-05-27T00:32:41;101655.59;;;13.36;69.98
41712;BME280;27399;51.516;13.670;2023-05-27T00:35:08;101652.00;;;13.32;70.37
41712;BME280;27399;51.516;13.670;2023-05-27T00:37:33;101654.69;;;13.29;69.92
41712;BME280;27399;51.516;13.670;2023-05-27T00:39:59;101656.50;;;13.27;69.82
41712;BME280;27399;51.516;13.670;2023-05-27T00:42:25;101655.59;;;13.17;70.43
41712;BME280;27399;51.516;13.670;2023-05-27T00:44:50;101652.00;;;13.15;70.38
41712;BME280;27399;51.516;13.670;2023-05-27T00:47:17;101648.44;;;13.09;70.83
41712;BME280;27399;51.516;13.670;2023-05-27T00:49:44;101650.22;;;13.13;71.03
41712;BME280;27399;51.516;13.670;2023-05-27T00:52:10;101649.31;;;13.12;70.86
41712;BME280;27399;51.516;13.670;2023-05-27T00:54:40;101647.53;;;13.00;71.38
41712;BME280;27399;51.516;13.670;2023-05-27T00:57:05;101649.31;;;13.03;71.47
41712;BME280;27399;51.516;13.670;2023-05-27T00:59:31;101658.25;;;13.00;70.80
41712;BME280;27399;51.516;13.670;2023-05-27T01:01:57;101651.09;;;12.96;70.59
41712;BME280;27399;51.516;13.670;2023-05-27T01:04:25;101656.47;;;12.95;71.42
41712;BME280;27399;51.516;13.670;2023-05-27T01:09:28;101657.34;;;12.84;71.01
41712;BME280;27399;51.516;13.670;2023-05-27T01:12:07;101657.31;;;12.86;71.52
41712;BME280;27399;51.516;13.670;2023-05-27T01:14:34;101659.97;;;12.77;72.03
41712;BME280;27399;51.516;13.670;2023-05-27T01:17:03;101659.97;;;12.72;71.61
41712;BME280;27399;51.516;13.670;2023-05-27T01:19:36;101653.72;;;12.64;72.02
41712;BME280;27399;51.516;13.670;2023-05-27T01:22:04;101659.97;;;12.66;72.06
41712;BME280;27399;51.516;13.670;2023-05-27T01:24:32;101642.09;;;12.57;72.29
41712;BME280;27399;51.516;13.670;2023-05-27T01:26:58;101654.59;;;12.60;72.14
41712;BME280;27399;51.516;13.670;2023-05-27T01:29:27;101659.94;;;12.58;72.07
41712;BME280;27399;51.516;13.670;2023-05-27T01:34:34;101650.97;;;12.44;72.47
41712;BME280;27399;51.516;13.670;2023-05-27T01:37:05;101654.53;;;12.39;72.84
41712;BME280;27399;51.516;13.670;2023-05-27T01:39:33;101658.97;;;12.33;72.62
41712;BME280;27399;51.516;13.670;2023-05-27T01:42:00;101655.41;;;12.32;72.35
41712;BME280;27399;51.516;13.670;2023-05-27T01:44:28;101658.94;;;12.23;72.73
41712;BME280;27399;51.516;13.670;2023-05-27T01:47:01;101658.06;;;12.24;73.21
41712;BME280;27399;51.516;13.670;2023-05-27T01:49:28;101651.78;;;12.22;73.01
41712;BME280;27399;51.516;13.670;2023-05-27T01:51:54;101655.34;;;12.18;73.25
41712;BME280;27399;51.516;13.670;2023-05-27T01:54:20;101648.19;;;12.14;73.69
41712;BME280;27399;51.516;13.670;2023-05-27T01:56:45;101648.16;;;12.08;73.30
41712;BME280;27399;51.516;13.670;2023-05-27T01:59:11;101646.38;;;12.08;72.86
41712;BME280;27399;51.516;13.670;2023-05-27T02:01:36;101644.56;;;11.98;73.53
41712;BME280;27399;51.516;13.670;2023-05-27T02:04:02;101639.22;;;12.00;73.09
41712;BME280;27399;51.516;13.670;2023-05-27T02:06:29;101634.75;;;11.99;73.24
41712;BME280;27399;51.516;13.670;2023-05-27T02:08:55;101641.81;;;11.97;73.34
41712;BME280;27399;51.516;13.670;2023-05-27T02:11:21;101639.09;;;11.87;73.39
41712;BME280;27399;51.516;13.670;2023-05-27T02:13:47;101635.50;;;11.85;73.09
41712;BME280;27399;51.516;13.670;2023-05-27T02:16:12;101634.56;;;11.72;73.68
41712;BME280;27399;51.516;13.670;2023-05-27T02:18:38;101639.09;;;11.81;73.64
41712;BME280;27399;51.516;13.670;2023-05-27T02:21:06;101633.72;;;11.76;73.46
41712;BME280;27399;51.516;13.670;2023-05-27T02:23:32;101635.41;;;11.63;73.42
41712;BME280;27399;51.516;13.670;2023-05-27T02:25:58;101638.13;;;11.68;73.35
41712;BME280;27399;51.516;13.670;2023-05-27T02:28:24;101634.50;;;11.65;73.67
41712;BME280;27399;51.516;13.670;2023-05-27T02:30:50;101633.59;;;11.59;73.77
41712;BME280;27399;51.516;13.670;2023-05-27T02:33:15;101626.44;;;11.52;73.97
41712;BME280;27399;51.516;13.670;2023-05-27T02:35:41;101639.78;;;11.55;73.39
41712;BME280;27399;51.516;13.670;2023-05-27T02:38:07;101635.34;;;11.57;73.72
41712;BME280;27399;51.516;13.670;2023-05-27T02:40:32;101637.16;;;11.60;73.64
41712;BME280;27399;51.516;13.670;2023-05-27T02:42:58;101638.84;;;11.47;73.86
41712;BME280;27399;51.516;13.670;2023-05-27T02:45:24;101637.13;;;11.55;73.75
41712;BME280;27399;51.516;13.670;2023-05-27T02:47:50;101636.25;;;11.53;73.69
41712;BME280;27399;51.516;13.670;2023-05-27T02:50:16;101637.03;;;11.43;74.23
41712;BME280;27399;51.516;13.670;2023-05-27T02:52:41;101638.75;;;11.35;73.90
41712;BME280;27399;51.516;13.670;2023-05-27T02:55:07;101644.13;;;11.38;73.93
41712;BME280;27399;51.516;13.670;2023-05-27T02:57:33;101636.97;;;11.30;74.23
41712;BME280;27399;51.516;13.670;2023-05-27T02:59:59;101643.19;;;11.29;74.27
41712;BME280;27399;51.516;13.670;2023-05-27T03:02:24;101642.28;;;11.27;74.25
41712;BME280;27399;51.516;13.670;2023-05-27T03:04:50;101643.16;;;11.25;74.03
41712;BME280;27399;51.516;13.670;2023-05-27T03:07:16;101638.72;;;11.28;74.34
41712;BME280;27399;51.516;13.670;2023-05-27T03:09:41;101637.81;;;11.26;74.29
41712;BME280;27399;51.516;13.670;2023-05-27T03:12:07;101646.72;;;11.28;74.10
41712;BME280;27399;51.516;13.670;2023-05-27T03:14:32;101645.81;;;11.25;74.53
41712;BME280;27399;51.516;13.670;2023-05-27T03:16:58;101642.19;;;11.18;74.61
41712;BME280;27399;51.516;13.670;2023-05-27T03:19:24;101644.81;;;11.13;74.70
41712;BME280;27399;51.516;13.670;2023-05-27T03:21:50;101643.91;;;11.13;74.26
41712;BME280;27399;51.516;13.670;2023-05-27T03:24:18;101644.75;;;11.04;74.91
41712;BME280;27399;51.516;13.670;2023-05-27T03:26:43;101638.59;;;11.14;74.40
41712;BME280;27399;51.516;13.670;2023-05-27T03:29:09;101643.94;;;11.14;74.39
41712;BME280;27399;51.516;13.670;2023-05-27T03:31:35;101653.78;;;11.22;74.13
41712;BME280;27399;51.516;13.670;2023-05-27T03:34:01;101651.97;;;11.16;74.48
41712;BME280;27399;51.516;13.670;2023-05-27T03:36:26;101642.13;;;11.09;74.86
41712;BME280;27399;51.516;13.670;2023-05-27T03:38:52;101651.03;;;11.11;74.48
41712;BME280;27399;51.516;13.670;2023-05-27T03:41:17;101650.97;;;11.05;75.09
41712;BME280;27399;51.516;13.670;2023-05-27T03:43:43;101643.03;;;11.12;74.86
41712;BME280;27399;51.516;13.670;2023-05-27T03:46:08;101648.38;;;11.14;74.88
41712;BME280;27399;51.516;13.670;2023-05-27T03:48:34;101647.47;;;11.12;74.66
41712;BME280;27399;51.516;13.670;2023-05-27T03:51:00;101655.50;;;11.15;74.89
41712;BME280;27399;51.516;13.670;2023-05-27T03:53:25;101660.81;;;11.10;74.87
41712;BME280;27399;51.516;13.670;2023-05-27T03:55:51;101655.44;;;11.06;75.41
41712;BME280;27399;51.516;13.670;2023-05-27T03:58:16;101664.31;;;11.03;75.72
41712;BME280;27399;51.516;13.670;2023-05-27T04:00:42;101653.69;;;11.08;75.34
41712;BME280;27399;51.516;13.670;2023-05-27T04:03:08;101661.59;;;11.01;75.89
41712;BME280;27399;51.516;13.670;2023-05-27T04:05:34;101664.41;;;11.11;75.61
41712;BME280;27399;51.516;13.670;2023-05-27T04:08:03;101655.47;;;11.09;75.53
41712;BME280;27399;51.516;13.670;2023-05-27T04:10:29;101667.06;;;11.12;76.22
41712;BME280;27399;51.516;13.670;2023-05-27T04:12:54;101661.69;;;11.09;76.04
41712;BME280;27399;51.516;13.670;2023-05-27T04:15:20;101664.41;;;11.14;76.17
41712;BME280;27399;51.516;13.670;2023-05-27T04:17:46;101669.81;;;11.20;76.50
41712;BME280;27399;51.516;13.670;2023-05-27T04:20:12;101662.75;;;11.27;76.55
41712;BME280;27399;51.516;13.670;2023-05-27T04:22:42;101663.66;;;11.30;76.67
41712;BME280;27399;51.516;13.670;2023-05-27T04:25:08;101667.22;;;11.29;76.38
41712;BME280;27399;51.516;13.670;2023-05-27T04:27:34;101663.66;;;11.34;76.58
41712;BME280;27399;51.516;13.670;2023-05-27T04:30:00;101661.03;;;11.38;76.82
41712;BME280;27399;51.516;13.670;2023-05-27T04:32:26;101654.91;;;11.52;76.64
41712;BME280;27399;51.516;13.670;2023-05-27T04:34:58;101662.03;;;11.53;76.44
41712;BME280;27399;51.516;13.670;2023-05-27T04:37:25;101661.22;;;11.63;76.93
41712;BME280;27399;51.516;13.670;2023-05-27T04:39:53;101664.75;;;11.59;77.30
41712;BME280;27399;51.516;13.670;2023-05-27T04:42:25;101671.06;;;11.69;77.01
41712;BME280;27399;51.516;13.670;2023-05-27T04:44:51;101667.53;;;11.73;76.79
41712;BME280;27399;51.516;13.670;2023-05-27T04:47:17;101669.34;;;11.77;77.25
41712;BME280;27399;51.516;13.670;2023-05-27T04:49:42;101670.25;;;11.77;77.11
41712;BME280;27399;51.516;13.670;2023-05-27T04:52:11;101673.00;;;11.90;77.45
41712;BME280;27399;51.516;13.670;2023-05-27T04:54:37;101677.53;;;11.99;77.39
41712;BME280;27399;51.516;13.670;2023-05-27T04:57:02;101677.41;;;11.85;77.91
41712;BME280;27399;51.516;13.670;2023-05-27T04:59:28;101670.41;;;12.02;77.56
41712;BME280;27399;51.516;13.670;2023-05-27T05:02:12;101674.03;;;12.11;77.55
41712;BME280;27399;51.516;13.670;2023-05-27T05:04:46;101680.34;;;12.27;77.26
41712;BME280;27399;51.516;13.670;2023-05-27T05:07:12;101676.78;;;12.31;77.41
41712;BME280;27399;51.516;13.670;2023-05-27T05:09:38;101674.13;;;12.32;77.94
41712;BME280;27399;51.516;13.670;2023-05-27T05:12:03;101680.44;;;12.48;77.23
41712;BME280;27399;51.516;13.670;2023-05-27T05:14:30;101671.53;;;12.55;77.63
41712;BME280;27399;51.516;13.670;2023-05-27T05:20:45;101672.50;;;12.79;77.88
41712;BME280;27399;51.516;13.670;2023-05-27T05:23:11;101682.28;;;12.74;77.92
41712;BME280;27399;51.516;13.670;2023-05-27T05:25:36;101676.09;;;12.83;78.21
41712;BME280;27399;51.516;13.670;2023-05-27T05:28:05;101671.63;;;12.97;77.69
41712;BME280;27399;51.516;13.670;2023-05-27T05:30:31;101673.41;;;12.94;78.22
41712;BME280;27399;51.516;13.670;2023-05-27T05:32:58;101675.22;;;13.07;76.89
41712;BME280;27399;51.516;13.670;2023-05-27T05:35:24;101683.28;;;13.15;76.50
41712;BME280;27399;51.516;13.670;2023-05-27T05:37:49;101678.81;;;13.32;76.76
41712;BME280;27399;51.516;13.670;2023-05-27T05:40:15;101682.44;;;13.47;76.46
41712;BME280;27399;51.516;13.670;2023-05-27T05:46:02;101682.41;;;13.70;75.44
41712;BME280;27399;51.516;13.670;2023-05-27T05:48:28;101685.03;;;13.89;74.13
41712;BME280;27399;51.516;13.670;2023-05-27T05:50:54;101677.88;;;14.02;73.92
41712;BME280;27399;51.516;13.670;2023-05-27T05:53:19;101682.31;;;14.17;73.83
41712;BME280;27399;51.516;13.670;2023-05-27T05:55:45;101685.81;;;14.31;73.63
41712;BME280;27399;51.516;13.670;2023-05-27T05:58:10;101690.25;;;14.40;73.63
41712;BME280;27399;51.516;13.670;2023-05-27T06:00:36;101690.19;;;14.54;72.46
41712;BME280;27399;51.516;13.670;2023-05-27T06:03:02;101699.09;;;14.64;72.03
41712;BME280;27399;51.516;13.670;2023-05-27T06:05:27;101688.31;;;14.78;71.37
41712;BME280;27399;51.516;13.670;2023-05-27T06:07:53;101693.59;;;14.95;70.64
41712;BME280;27399;51.516;13.670;2023-05-27T06:10:19;101688.22;;;14.92;71.64
41712;BME280;27399;51.516;13.670;2023-05-27T06:12:45;101684.50;;;15.14;71.35
41712;BME280;27399;51.516;13.670;2023-05-27T06:15:10;101691.59;;;15.22;70.61
41712;BME280;27399;51.516;13.670;2023-05-27T06:17:37;101691.47;;;15.39;69.61
41712;BME280;27399;51.516;13.670;2023-05-27T06:20:03;101694.13;;;15.42;69.41
41712;BME280;27399;51.516;13.670;2023-05-27T06:22:29;101689.50;;;15.56;69.20
41712;BME280;27399;51.516;13.670;2023-05-27T06:24:54;101689.31;;;15.78;68.78
41712;BME280;27399;51.516;13.670;2023-05-27T06:27:20;101693.75;;;15.82;69.10
41712;BME280;27399;51.516;13.670;2023-05-27T06:29:46;101695.50;;;15.89;69.16
41712;BME280;27399;51.516;13.670;2023-05-27T06:32:11;101697.19;;;16.00;68.77
41712;BME280;27399;51.516;13.670;2023-05-27T06:34:37;101707.03;;;16.04;67.73
41712;BME280;27399;51.516;13.670;2023-05-27T06:37:02;101706.81;;;16.22;68.29
41712;BME280;27399;51.516;13.670;2023-05-27T06:39:28;101714.72;;;16.38;67.68
41712;BME280;27399;51.516;13.670;2023-05-27T06:41:54;101701.13;;;16.47;66.71
41712;BME280;27399;51.516;13.670;2023-05-27T06:44:19;101704.31;;;16.79;66.87
41712;BME280;27399;51.516;13.670;2023-05-27T06:46:45;101699.69;;;16.88;65.60
41712;BME280;27399;51.516;13.670;2023-05-27T06:49:11;101696.97;;;16.90;65.71
41712;BME280;27399;51.516;13.670;2023-05-27T06:51:36;101691.19;;;17.18;65.71
41712;BME280;27399;51.516;13.670;2023-05-27T06:54:02;101696.00;;;16.97;64.30
41712;BME280;27399;51.516;13.670;2023-05-27T06:56:28;101689.22;;;17.28;63.28
41712;BME280;27399;51.516;13.670;2023-05-27T06:58:53;101684.75;;;17.28;63.68
41712;BME280;27399;51.516;13.670;2023-05-27T07:01:19;101693.00;;;17.69;63.88
41712;BME280;27399;51.516;13.670;2023-05-27T07:03:45;101689.31;;;17.75;61.66
41712;BME280;27399;51.516;13.670;2023-05-27T07:06:10;101685.44;;;17.91;63.00
41712;BME280;27399;51.516;13.670;2023-05-27T07:08:36;101690.72;;;17.98;62.00
41712;BME280;27399;51.516;13.670;2023-05-27T07:11:02;101684.75;;;18.27;61.04
41712;BME280;27399;51.516;13.670;2023-05-27T07:13:27;101682.22;;;18.19;61.54
41712;BME280;27399;51.516;13.670;2023-05-27T07:15:53;101679.03;;;18.42;61.67
41712;BME280;27399;51.516;13.670;2023-05-27T07:18:19;101675.16;;;18.56;61.47
41712;BME280;27399;51.516;13.670;2023-05-27T07:20:45;101686.97;;;18.50;62.16
41712;BME280;27399;51.516;13.670;2023-05-27T07:23:11;101680.59;;;18.54;60.36
41712;BME280;27399;51.516;13.670;2023-05-27T07:25:36;101677.38;;;18.78;60.89
41712;BME280;27399;51.516;13.670;2023-05-27T07:28:02;101686.28;;;18.83;60.04
41712;BME280;27399;51.516;13.670;2023-05-27T07:30:28;101674.50;;;18.85;60.08
41712;BME280;27399;51.516;13.670;2023-05-27T07:32:54;101677.88;;;18.97;59.49
41712;BME280;27399;51.516;13.670;2023-05-27T07:35:19;101674.03;;;19.05;59.49
41712;BME280;27399;51.516;13.670;2023-05-27T07:37:45;101680.41;;;19.03;58.37
41712;BME280;27399;51.516;13.670;2023-05-27T07:40:11;101681.91;;;18.76;59.36
41712;BME280;27399;51.516;13.670;2023-05-27T07:42:37;101674.94;;;18.65;57.97
41712;BME280;27399;51.516;13.670;2023-05-27T07:45:03;101672.50;;;18.53;57.14
41712;BME280;27399;51.516;13.670;2023-05-27T07:47:28;101678.09;;;18.43;59.39
41712;BME280;27399;51.516;13.670;2023-05-27T07:49:55;101676.88;;;18.60;59.25
41712;BME280;27399;51.516;13.670;2023-05-27T07:52:21;101677.75;;;18.61;58.64
41712;BME280;27399;51.516;13.670;2023-05-27T07:54:46;101674.66;;;18.78;58.72
41712;BME280;27399;51.516;13.670;2023-05-27T07:57:13;101675.25;;;18.90;58.86
41712;BME280;27399;51.516;13.670;2023-05-27T07:59:42;101667.69;;;19.08;57.63
41712;BME280;27399;51.516;13.670;2023-05-27T08:02:09;101664.88;;;19.11;57.32
41712;BME280;27399;51.516;13.670;2023-05-27T08:04:34;101666.50;;;19.20;56.20
41712;BME280;27399;51.516;13.670;2023-05-27T08:07:00;101662.00;;;19.19;56.41
41712;BME280;27399;51.516;13.670;2023-05-27T08:09:25;101662.19;;;19.47;56.66
41712;BME280;27399;51.516;13.670;2023-05-27T08:11:51;101664.44;;;19.30;56.64
41712;BME280;27399;51.516;13.670;2023-05-27T08:14:17;101665.78;;;19.48;55.55
41712;BME280;27399;51.516;13.670;2023-05-27T08:16:42;101656.28;;;19.31;55.07
41712;BME280;27399;51.516;13.670;2023-05-27T08:19:08;101654.69;;;19.24;56.33
41712;BME280;27399;51.516;13.670;2023-05-27T08:21:34;101644.91;;;19.17;55.69
41712;BME280;27399;51.516;13.670;2023-05-27T08:24:01;101638.19;;;18.97;55.62
41712;BME280;27399;51.516;13.670;2023-05-27T08:26:31;101639.69;;;18.70;55.65
41712;BME280;27399;51.516;13.670;2023-05-27T08:28:56;101634.63;;;18.95;57.66
41712;BME280;27399;51.516;13.670;2023-05-27T08:31:22;101628.91;;;18.70;55.52
41712;BME280;27399;51.516;13.670;2023-05-27T08:33:47;101627.84;;;18.77;57.38
41712;BME280;27399;51.516;13.670;2023-05-27T08:36:13;101622.50;;;18.33;56.68
41712;BME280;27399;51.516;13.670;2023-05-27T08:38:40;101627.31;;;18.61;56.50
41712;BME280;27399;51.516;13.670;2023-05-27T08:41:06;101625.59;;;18.57;57.16
41712;BME280;27399;51.516;13.670;2023-05-27T08:46:01;101619.53;;;18.46;56.23
41712;BME280;27399;51.516;13.670;2023-05-27T08:48:27;101605.44;;;18.31;56.80
41712;BME280;27399;51.516;13.670;2023-05-27T08:50:52;101616.00;;;18.83;57.72
41712;BME280;27399;51.516;13.670;2023-05-27T08:53:19;101609.81;;;19.15;55.53
41712;BME280;27399;51.516;13.670;2023-05-27T08:55:46;101615.53;;;19.72;54.85
41712;BME280;27399;51.516;13.670;2023-05-27T08:58:14;101617.34;;;20.05;54.86
41712;BME280;27399;51.516;13.670;2023-05-27T09:00:41;101602.31;;;20.24;52.72
41712;BME280;27399;51.516;13.670;2023-05-27T09:03:08;101601.56;;;20.49;54.02
41712;BME280;27399;51.516;13.670;2023-05-27T09:05:34;101603.44;;;20.47;53.90
41712;BME280;27399;51.516;13.670;2023-05-27T09:08:00;101605.38;;;20.13;54.40
41712;BME280;27399;51.516;13.670;2023-05-27T09:10:39;101593.59;;;20.15;52.73
41712;BME280;27399;51.516;13.670;2023-05-27T09:13:05;101580.97;;;20.43;52.01
41712;BME280;27399;51.516;13.670;2023-05-27T09:15:31;101583.22;;;20.29;51.50
41712;BME280;27399;51.516;13.670;2023-05-27T09:17:57;101577.97;;;20.53;52.32
41712;BME280;27399;51.516;13.670;2023-05-27T09:20:27;101578.03;;;20.51;50.82
41712;BME280;27399;51.516;13.670;2023-05-27T09:22:57;101575.38;;;20.78;50.50
41712;BME280;27399;51.516;13.670;2023-05-27T09:25:27;101573.47;;;21.09;51.19
41712;BME280;27399;51.516;13.670;2023-05-27T09:27:54;101550.44;;;21.20;49.62
41712;BME280;27399;51.516;13.670;2023-05-27T09:30:21;101566.22;;;21.61;48.40
41712;BME280;27399;51.516;13.670;2023-05-27T09:32:47;101568.78;;;22.13;49.51
41712;BME280;27399;51.516;13.670;2023-05-27T09:35:14;101572.34;;;22.16;49.83
41712;BME280;27399;51.516;13.670;2023-05-27T09:37:41;101576.09;;;22.35;49.77
41712;BME280;27399;51.516;13.670;2023-05-27T09:40:11;101566.84;;;22.41;50.06
41712;BME280;27399;51.516;13.670;2023-05-27T09:42:43;101565.47;;;22.29;47.14
41712;BME280;27399;51.516;13.670;2023-05-27T09:45:16;101570.72;;;22.80;47.17
41712;BME280;27399;51.516;13.670;2023-05-27T09:47:51;101566.09;;;22.82;46.12
41712;BME280;27399;51.516;13.670;2023-05-27T09:50:18;101565.25;;;23.02;47.38
41712;BME280;27399;51.516;13.670;2023-05-27T09:52:46;101558.50;;;22.46;46.61
41712;BME280;27399;51.516;13.670;2023-05-27T09:55:13;101558.50;;;22.46;46.74
41712;BME280;27399;51.516;13.670;2023-05-27T09:57:43;101554.06;;;22.19;46.43
41712;BME280;27399;51.516;13.670;2023-05-27T10:00:10;101561.47;;;22.16;48.41
41712;BME280;27399;51.516;13.670;2023-05-27T10:02:40;101557.13;;;21.37;47.93
41712;BME280;27399;51.516;13.670;2023-05-27T10:05:07;101544.22;;;21.93;48.63
41712;BME280;27399;51.516;13.670;2023-05-27T10:07:38;101545.06;;;21.95;49.55
41712;BME280;27399;51.516;13.670;2023-05-27T10:10:06;101551.44;;;21.94;49.57
41712;BME280;27399;51.516;13.670;2023-05-27T10:12:33;101546.84;;;21.96;48.76
41712;BME280;27399;51.516;13.670;2023-05-27T10:14:59;101538.56;;;21.99;47.88
41712;BME280;27399;51.516;13.670;2023-05-27T10:17:25;101529.78;;;21.92;48.82
41712;BME280;27399;51.516;13.670;2023-05-27T10:19:55;101541.09;;;21.80;48.39
41712;BME280;27399;51.516;13.670;2023-05-27T10:22:21;101531.59;;;21.68;48.77
41712;BME280;27399;51.516;13.670;2023-05-27T10:24:47;101533.53;;;21.64;48.92
41712;BME280;27399;51.516;13.670;2023-05-27T10:27:19;101532.06;;;21.54;48.15
41712;BME280;27399;51.516;13.670;2023-05-27T10:29:57;101532.06;;;21.29;47.59
41712;BME280;27399;51.516;13.670;2023-05-27T10:32:22;101519.72;;;21.45;47.20
41712;BME280;27399;51.516;13.670;2023-05-27T10:34:48;101522.44;;;21.45;47.13
41712;BME280;27399;51.516;13.670;2023-05-27T10:37:20;101527.81;;;21.47;47.70
41712;BME280;27399;51.516;13.670;2023-05-27T10:39:56;101520.00;;;21.63;48.72
41712;BME280;27399;51.516;13.670;2023-05-27T10:42:22;101514.91;;;21.54;47.92
41712;BME280;27399;51.516;13.670;2023-05-27T10:45:04;101515.16;;;21.47;46.47
41712;BME280;27399;51.516;13.670;2023-05-27T10:47:34;101519.38;;;21.55;49.36
41712;BME280;27399;51.516;13.670;2023-05-27T10:50:10;101514.16;;;21.48;46.08
41712;BME280;27399;51.516;13.670;2023-05-27T10:52:41;101516.09;;;21.46;44.80
41712;BME280;27399;51.516;13.670;2023-05-27T10:55:07;101502.50;;;21.46;46.22
41712;BME280;27399;51.516;13.670;2023-05-27T10:57:33;101509.56;;;21.50;47.76
41712;BME280;27399;51.516;13.670;2023-05-27T11:00:08;101509.66;;;21.49;46.10
41712;BME280;27399;51.516;13.670;2023-05-27T11:02:38;101494.66;;;21.39;46.41
41712;BME280;27399;51.516;13.670;2023-05-27T11:05:13;101500.28;;;21.58;47.04
41712;BME280;27399;51.516;13.670;2023-05-27T11:07:39;101500.50;;;21.51;45.75
41712;BME280;27399;51.516;13.670;2023-05-27T11:10:07;101505.25;;;21.70;47.49
41712;BME280;27399;51.516;13.670;2023-05-27T11:12:33;101501.66;;;21.70;46.99
41712;BME280;27399;51.516;13.670;2023-05-27T11:15:00;101491.88;;;21.89;47.03
41712;BME280;27399;51.516;13.670;2023-05-27T11:17:26;101495.13;;;21.99;48.78
41712;BME280;27399;51.516;13.670;2023-05-27T11:19:53;101498.03;;;21.94;47.39
41712;BME280;27399;51.516;13.670;2023-05-27T11:22:19;101484.81;;;21.61;45.28
41712;BME280;27399;51.516;13.670;2023-05-27T11:25:02;101481.84;;;21.91;45.68
41712;BME280;27399;51.516;13.670;2023-05-27T11:27:38;101470.22;;;22.10;46.04
41712;BME280;27399;51.516;13.670;2023-05-27T11:30:09;101481.47;;;22.01;46.26
41712;BME280;27399;51.516;13.670;2023-05-27T11:32:36;101475.28;;;21.97;44.20
41712;BME280;27399;51.516;13.670;2023-05-27T11:35:02;101478.44;;;22.08;45.49
41712;BME280;27399;51.516;13.670;2023-05-27T11:37:34;101476.19;;;22.20;45.81
41712;BME280;27399;51.516;13.670;2023-05-27T11:40:10;101477.31;;;22.36;47.65
41712;BME280;27399;51.516;13.670;2023-05-27T11:42:36;101464.19;;;22.25;45.49
41712;BME280;27399;51.516;13.670;2023-05-27T11:45:01;101460.72;;;22.44;45.90
41712;BME280;27399;51.516;13.670;2023-05-27T11:47:32;101453.75;;;22.59;45.60
41712;BME280;27399;51.516;13.670;2023-05-27T11:49:59;101457.84;;;22.69;46.81
41712;BME280;27399;51.516;13.670;2023-05-27T11:52:24;101454.94;;;22.29;44.77
41712;BME280;27399;51.516;13.670;2023-05-27T11:54:51;101454.47;;;22.20;45.49
41712;BME280;27399;51.516;13.670;2023-05-27T11:57:17;101447.09;;;22.00;44.64
41712;BME280;27399;51.516;13.670;2023-05-27T11:59:42;101442.75;;;21.95;44.84
41712;BME280;27399;51.516;13.670;2023-05-27T12:02:28;101451.41;;;22.05;45.11
41712;BME280;27399;51.516;13.670;2023-05-27T12:04:53;101444.94;;;21.86;44.71
41712;BME280;27399;51.516;13.670;2023-05-27T12:07:19;101439.28;;;22.36;46.46
41712;BME280;27399;51.516;13.670;2023-05-27T12:09:45;101435.59;;;22.37;45.16
41712;BME280;27399;51.516;13.670;2023-05-27T12:12:11;101427.22;;;22.43;45.88
41712;BME280;27399;51.516;13.670;2023-05-27T12:14:37;101420.06;;;22.19;47.29
41712;BME280;27399;51.516;13.670;2023-05-27T12:17:03;101415.56;;;22.40;47.14
41712;BME280;27399;51.516;13.670;2023-05-27T12:19:28;101422.78;;;21.96;46.40
41712;BME280;27399;51.516;13.670;2023-05-27T12:21:58;101409.72;;;22.06;47.22
41712;BME280;27399;51.516;13.670;2023-05-27T12:24:24;101407.56;;;22.14;47.58
41712;BME280;27399;51.516;13.670;2023-05-27T12:26:49;101408.94;;;22.25;47.72
41712;BME280;27399;51.516;13.670;2023-05-27T12:29:15;101410.84;;;22.23;47.01
41712;BME280;27399;51.516;13.670;2023-05-27T12:31:41;101403.50;;;22.25;48.56
41712;BME280;27399;51.516;13.670;2023-05-27T12:34:06;101395.13;;;22.09;46.72
41712;BME280;27399;51.516;13.670;2023-05-27T12:36:32;101394.09;;;22.34;47.89
41712;BME280;27399;51.516;13.670;2023-05-27T12:38:58;101396.06;;;22.30;47.36
41712;BME280;27399;51.516;13.670;2023-05-27T12:41:24;101387.47;;;22.19;46.54
41712;BME280;27399;51.516;13.670;2023-05-27T12:43:51;101395.13;;;22.09;47.99
41712;BME280;27399;51.516;13.670;2023-05-27T12:46:17;101383.94;;;22.17;48.53
41712;BME280;27399;51.516;13.670;2023-05-27T12:48:43;101380.91;;;22.02;46.53
41712;BME280;27399;51.516;13.670;2023-05-27T12:51:09;101377.13;;;22.06;46.42
41712;BME280;27399;51.516;13.670;2023-05-27T12:53:35;101375.50;;;22.23;47.24